sensor_id;sensor_type;location;lat;lon;timestamp;temperature;humidity
40758;DHT22;26462;47.384;19.218;2023-02-28T00:00:37;1.10;80.10
40758;DHT22;26462;47.384;19.218;2023-02-28T00:03:05;1.20;80.20
40758;DHT22;26462;47.384;19.218;2023-02-28T00:05:32;1.20;80.60
40758;DHT22;26462;47.384;19.218;2023-02-28T00:08:00;1.20;80.40
40758;DHT22;26462;47.384;19.218;2023-02-28T00:10:29;1.10;80.30
40758;DHT22;26462;47.384;19.218;2023-02-28T00:13:00;1.10;80.20
40758;DHT22;26462;47.384;19.218;2023-02-28T00:15:28;1.10;80.20
40758;DHT22;26462;47.384;19.218;2023-02-28T00:17:55;1.10;80.50
40758;DHT22;26462;47.384;19.218;2023-02-28T00:20:23;1.10;80.30
40758;DHT22;26462;47.384;19.218;2023-02-28T00:22:51;1.10;80.40
40758;DHT22;26462;47.384;19.218;2023-02-28T00:25:23;1.10;80.30
40758;DHT22;26462;47.384;19.218;2023-02-28T00:27:50;1.10;80.20
40758;DHT22;26462;47.384;19.218;2023-02-28T00:30:20;1.10;80.40
40758;DHT22;26462;47.384;19.218;2023-02-28T00:32:49;1.10;80.50
40758;DHT22;26462;47.384;19.218;2023-02-28T00:35:16;1.10;81.10
40758;DHT22;26462;47.384;19.218;2023-02-28T00:37:43;1.20;80.70
40758;DHT22;26462;47.384;19.218;2023-02-28T00:40:11;1.20;81.10
40758;DHT22;26462;47.384;19.218;2023-02-28T00:42:39;1.20;81.50
40758;DHT22;26462;47.384;19.218;2023-02-28T00:45:07;1.20;81.20
40758;DHT22;26462;47.384;19.218;2023-02-28T00:47:37;1.20;81.10
40758;DHT22;26462;47.384;19.218;2023-02-28T00:50:05;1.20;81.00
40758;DHT22;26462;47.384;19.218;2023-02-28T00:52:32;1.20;81.00
40758;DHT22;26462;47.384;19.218;2023-02-28T00:54:59;1.20;81.10
40758;DHT22;26462;47.384;19.218;2023-02-28T00:57:27;1.20;80.80
40758;DHT22;26462;47.384;19.218;2023-02-28T00:59:54;1.30;81.20
40758;DHT22;26462;47.384;19.218;2023-02-28T01:02:22;1.30;81.40
40758;DHT22;26462;47.384;19.218;2023-02-28T01:04:52;1.30;80.90
40758;DHT22;26462;47.384;19.218;2023-02-28T01:07:19;1.30;81.10
40758;DHT22;26462;47.384;19.218;2023-02-28T01:09:46;1.30;81.70
40758;DHT22;26462;47.384;19.218;2023-02-28T01:12:13;1.20;81.40
40758;DHT22;26462;47.384;19.218;2023-02-28T01:14:41;1.30;81.80
40758;DHT22;26462;47.384;19.218;2023-02-28T01:17:09;1.30;81.80
40758;DHT22;26462;47.384;19.218;2023-02-28T01:19:36;1.20;82.30
40758;DHT22;26462;47.384;19.218;2023-02-28T01:22:04;1.30;82.00
40758;DHT22;26462;47.384;19.218;2023-02-28T01:24:32;1.30;82.00
40758;DHT22;26462;47.384;19.218;2023-02-28T01:27:00;1.30;81.90
40758;DHT22;26462;47.384;19.218;2023-02-28T01:29:27;1.30;81.80
40758;DHT22;26462;47.384;19.218;2023-02-28T01:31:54;1.30;81.50
40758;DHT22;26462;47.384;19.218;2023-02-28T01:34:22;1.30;81.80
40758;DHT22;26462;47.384;19.218;2023-02-28T01:36:50;1.30;81.70
40758;DHT22;26462;47.384;19.218;2023-02-28T01:39:18;1.30;82.00
40758;DHT22;26462;47.384;19.218;2023-02-28T01:41:45;1.30;82.10
40758;DHT22;26462;47.384;19.218;2023-02-28T01:47:18;1.30;82.00
40758;DHT22;26462;47.384;19.218;2023-02-28T01:49:45;1.20;82.50
40758;DHT22;26462;47.384;19.218;2023-02-28T01:52:13;1.20;82.10
40758;DHT22;26462;47.384;19.218;2023-02-28T01:54:50;1.20;83.50
40758;DHT22;26462;47.384;19.218;2023-02-28T01:57:20;1.20;82.60
40758;DHT22;26462;47.384;19.218;2023-02-28T01:59:54;1.20;82.70
40758;DHT22;26462;47.384;19.218;2023-02-28T02:02:26;1.20;82.70
40758;DHT22;26462;47.384;19.218;2023-02-28T02:05:15;1.20;83.30
40758;DHT22;26462;47.384;19.218;2023-02-28T02:07:44;1.20;83.30
40758;DHT22;26462;47.384;19.218;2023-02-28T02:10:18;1.20;82.40
40758;DHT22;26462;47.384;19.218;2023-02-28T02:16:13;1.20;83.20
40758;DHT22;26462;47.384;19.218;2023-02-28T02:24:59;1.20;83.50
40758;DHT22;26462;47.384;19.218;2023-02-28T02:33:28;1.20;83.90
40758;DHT22;26462;47.384;19.218;2023-02-28T02:38:48;1.20;83.10
40758;DHT22;26462;47.384;19.218;2023-02-28T02:44:27;1.20;83.40
40758;DHT22;26462;47.384;19.218;2023-02-28T02:47:04;1.20;83.00
40758;DHT22;26462;47.384;19.218;2023-02-28T02:49:36;1.20;83.40
40758;DHT22;26462;47.384;19.218;2023-02-28T02:52:11;1.20;83.30
40758;DHT22;26462;47.384;19.218;2023-02-28T02:54:41;1.20;83.60
40758;DHT22;26462;47.384;19.218;2023-02-28T02:57:22;1.20;83.90
40758;DHT22;26462;47.384;19.218;2023-02-28T02:59:51;1.20;83.50
40758;DHT22;26462;47.384;19.218;2023-02-28T03:02:21;1.20;83.60
40758;DHT22;26462;47.384;19.218;2023-02-28T03:04:52;1.20;83.90
40758;DHT22;26462;47.384;19.218;2023-02-28T03:07:21;1.20;83.40
40758;DHT22;26462;47.384;19.218;2023-02-28T03:09:53;1.20;83.80
40758;DHT22;26462;47.384;19.218;2023-02-28T03:12:20;1.20;83.60
40758;DHT22;26462;47.384;19.218;2023-02-28T03:15:08;1.20;83.70
40758;DHT22;26462;47.384;19.218;2023-02-28T03:18:13;1.20;83.70
40758;DHT22;26462;47.384;19.218;2023-02-28T03:23:31;1.20;84.60
40758;DHT22;26462;47.384;19.218;2023-02-28T03:26:06;1.20;83.80
40758;DHT22;26462;47.384;19.218;2023-02-28T03:28:43;1.20;83.60
40758;DHT22;26462;47.384;19.218;2023-02-28T03:31:37;1.20;83.30
40758;DHT22;26462;47.384;19.218;2023-02-28T03:34:29;1.20;83.30
40758;DHT22;26462;47.384;19.218;2023-02-28T03:37:04;1.20;84.10
40758;DHT22;26462;47.384;19.218;2023-02-28T03:39:42;1.20;83.60
40758;DHT22;26462;47.384;19.218;2023-02-28T03:42:23;1.20;83.90
40758;DHT22;26462;47.384;19.218;2023-02-28T03:45:05;1.20;83.90
40758;DHT22;26462;47.384;19.218;2023-02-28T03:47:56;1.20;84.00
40758;DHT22;26462;47.384;19.218;2023-02-28T03:50:29;1.20;83.50
40758;DHT22;26462;47.384;19.218;2023-02-28T03:53:03;1.20;83.30
40758;DHT22;26462;47.384;19.218;2023-02-28T03:55:38;1.20;83.80
40758;DHT22;26462;47.384;19.218;2023-02-28T03:58:20;1.20;83.50
40758;DHT22;26462;47.384;19.218;2023-02-28T04:00:50;1.20;83.50
40758;DHT22;26462;47.384;19.218;2023-02-28T04:03:18;1.20;83.70
40758;DHT22;26462;47.384;19.218;2023-02-28T04:05:55;1.20;84.00
40758;DHT22;26462;47.384;19.218;2023-02-28T04:08:24;1.20;84.00
40758;DHT22;26462;47.384;19.218;2023-02-28T04:13:41;1.20;83.40
40758;DHT22;26462;47.384;19.218;2023-02-28T04:16:09;1.20;84.00
40758;DHT22;26462;47.384;19.218;2023-02-28T04:18:58;1.20;84.70
40758;DHT22;26462;47.384;19.218;2023-02-28T04:21:29;1.10;83.90
40758;DHT22;26462;47.384;19.218;2023-02-28T04:23:57;1.20;84.40
40758;DHT22;26462;47.384;19.218;2023-02-28T04:26:32;1.10;83.90
40758;DHT22;26462;47.384;19.218;2023-02-28T04:29:00;1.10;83.90
40758;DHT22;26462;47.384;19.218;2023-02-28T04:31:27;1.00;83.70
40758;DHT22;26462;47.384;19.218;2023-02-28T04:33:55;1.10;83.90
40758;DHT22;26462;47.384;19.218;2023-02-28T04:36:23;1.10;83.50
40758;DHT22;26462;47.384;19.218;2023-02-28T04:38:50;1.10;83.50
40758;DHT22;26462;47.384;19.218;2023-02-28T04:41:18;1.20;83.70
40758;DHT22;26462;47.384;19.218;2023-02-28T04:43:46;1.20;83.50
40758;DHT22;26462;47.384;19.218;2023-02-28T04:46:13;1.20;83.70
40758;DHT22;26462;47.384;19.218;2023-02-28T04:48:40;1.20;84.30
40758;DHT22;26462;47.384;19.218;2023-02-28T04:51:09;1.20;84.00
40758;DHT22;26462;47.384;19.218;2023-02-28T04:53:38;1.20;84.00
40758;DHT22;26462;47.384;19.218;2023-02-28T04:56:07;1.20;83.70
40758;DHT22;26462;47.384;19.218;2023-02-28T04:58:34;1.20;84.40
40758;DHT22;26462;47.384;19.218;2023-02-28T05:01:23;1.30;84.10
40758;DHT22;26462;47.384;19.218;2023-02-28T05:03:51;1.20;83.90
40758;DHT22;26462;47.384;19.218;2023-02-28T05:06:19;1.10;83.20
40758;DHT22;26462;47.384;19.218;2023-02-28T05:08:47;1.20;83.40
40758;DHT22;26462;47.384;19.218;2023-02-28T05:11:21;1.20;83.30
40758;DHT22;26462;47.384;19.218;2023-02-28T05:13:49;1.10;82.90
40758;DHT22;26462;47.384;19.218;2023-02-28T05:16:17;1.20;83.10
40758;DHT22;26462;47.384;19.218;2023-02-28T05:18:44;1.10;83.20
40758;DHT22;26462;47.384;19.218;2023-02-28T05:21:32;1.20;83.50
40758;DHT22;26462;47.384;19.218;2023-02-28T05:24:02;1.20;83.80
40758;DHT22;26462;47.384;19.218;2023-02-28T05:26:31;1.20;83.90
40758;DHT22;26462;47.384;19.218;2023-02-28T05:29:00;1.20;83.70
40758;DHT22;26462;47.384;19.218;2023-02-28T05:31:28;1.20;83.80
40758;DHT22;26462;47.384;19.218;2023-02-28T05:33:55;1.20;84.00
40758;DHT22;26462;47.384;19.218;2023-02-28T05:36:23;1.10;83.50
40758;DHT22;26462;47.384;19.218;2023-02-28T05:38:53;1.20;83.80
40758;DHT22;26462;47.384;19.218;2023-02-28T05:41:20;1.10;83.40
40758;DHT22;26462;47.384;19.218;2023-02-28T05:43:48;1.10;83.50
40758;DHT22;26462;47.384;19.218;2023-02-28T05:46:15;1.20;83.80
40758;DHT22;26462;47.384;19.218;2023-02-28T05:48:45;1.20;83.50
40758;DHT22;26462;47.384;19.218;2023-02-28T05:51:12;1.20;83.50
40758;DHT22;26462;47.384;19.218;2023-02-28T05:53:39;1.30;83.50
40758;DHT22;26462;47.384;19.218;2023-02-28T05:56:07;1.20;83.30
40758;DHT22;26462;47.384;19.218;2023-02-28T05:58:34;1.20;83.50
40758;DHT22;26462;47.384;19.218;2023-02-28T06:01:41;1.10;83.50
40758;DHT22;26462;47.384;19.218;2023-02-28T06:04:09;1.20;83.80
40758;DHT22;26462;47.384;19.218;2023-02-28T06:06:51;1.20;84.20
40758;DHT22;26462;47.384;19.218;2023-02-28T06:09:18;1.20;83.80
40758;DHT22;26462;47.384;19.218;2023-02-28T06:11:46;1.30;83.90
40758;DHT22;26462;47.384;19.218;2023-02-28T06:14:16;1.30;83.80
40758;DHT22;26462;47.384;19.218;2023-02-28T06:16:44;1.30;83.50
40758;DHT22;26462;47.384;19.218;2023-02-28T06:19:11;1.40;83.40
40758;DHT22;26462;47.384;19.218;2023-02-28T06:21:38;1.30;83.00
40758;DHT22;26462;47.384;19.218;2023-02-28T06:24:06;1.40;83.20
40758;DHT22;26462;47.384;19.218;2023-02-28T06:26:33;1.30;82.80
40758;DHT22;26462;47.384;19.218;2023-02-28T06:29:00;1.30;82.60
40758;DHT22;26462;47.384;19.218;2023-02-28T06:31:28;1.30;82.50
40758;DHT22;26462;47.384;19.218;2023-02-28T06:33:56;1.30;82.00
40758;DHT22;26462;47.384;19.218;2023-02-28T06:36:23;1.30;81.60
40758;DHT22;26462;47.384;19.218;2023-02-28T06:38:50;1.30;81.60
40758;DHT22;26462;47.384;19.218;2023-02-28T06:41:24;1.40;82.40
40758;DHT22;26462;47.384;19.218;2023-02-28T06:43:53;1.50;81.50
40758;DHT22;26462;47.384;19.218;2023-02-28T06:46:20;1.50;81.50
40758;DHT22;26462;47.384;19.218;2023-02-28T06:48:47;1.60;81.60
40758;DHT22;26462;47.384;19.218;2023-02-28T06:51:18;1.60;81.00
40758;DHT22;26462;47.384;19.218;2023-02-28T06:53:47;1.70;81.30
40758;DHT22;26462;47.384;19.218;2023-02-28T06:56:16;1.70;80.60
40758;DHT22;26462;47.384;19.218;2023-02-28T06:58:51;1.70;80.20
40758;DHT22;26462;47.384;19.218;2023-02-28T07:01:20;1.70;80.00
40758;DHT22;26462;47.384;19.218;2023-02-28T07:03:50;1.90;80.50
40758;DHT22;26462;47.384;19.218;2023-02-28T07:06:22;1.90;80.50
40758;DHT22;26462;47.384;19.218;2023-02-28T07:08:50;2.00;80.00
40758;DHT22;26462;47.384;19.218;2023-02-28T07:11:20;2.00;79.80
40758;DHT22;26462;47.384;19.218;2023-02-28T07:13:53;2.00;79.30
40758;DHT22;26462;47.384;19.218;2023-02-28T07:16:21;2.10;79.10
40758;DHT22;26462;47.384;19.218;2023-02-28T07:18:49;2.10;79.50
40758;DHT22;26462;47.384;19.218;2023-02-28T07:21:16;2.10;79.00
40758;DHT22;26462;47.384;19.218;2023-02-28T07:23:43;2.10;78.50
40758;DHT22;26462;47.384;19.218;2023-02-28T07:26:13;2.20;78.60
40758;DHT22;26462;47.384;19.218;2023-02-28T07:28:42;2.30;78.60
40758;DHT22;26462;47.384;19.218;2023-02-28T07:31:11;1.90;78.00
40758;DHT22;26462;47.384;19.218;2023-02-28T07:33:39;2.40;78.20
40758;DHT22;26462;47.384;19.218;2023-02-28T07:36:09;2.50;78.20
40758;DHT22;26462;47.384;19.218;2023-02-28T07:38:42;2.60;78.30
40758;DHT22;26462;47.384;19.218;2023-02-28T07:41:19;2.70;78.30
40758;DHT22;26462;47.384;19.218;2023-02-28T07:43:47;2.70;77.60
40758;DHT22;26462;47.384;19.218;2023-02-28T07:46:16;2.80;76.90
40758;DHT22;26462;47.384;19.218;2023-02-28T07:48:47;2.90;77.40
40758;DHT22;26462;47.384;19.218;2023-02-28T07:51:14;2.90;77.20
40758;DHT22;26462;47.384;19.218;2023-02-28T07:53:42;3.20;75.70
40758;DHT22;26462;47.384;19.218;2023-02-28T07:56:16;3.10;74.80
40758;DHT22;26462;47.384;19.218;2023-02-28T07:58:45;3.10;74.70
40758;DHT22;26462;47.384;19.218;2023-02-28T08:01:16;3.10;74.90
40758;DHT22;26462;47.384;19.218;2023-02-28T08:03:46;3.10;74.50
40758;DHT22;26462;47.384;19.218;2023-02-28T08:06:20;3.20;74.50
40758;DHT22;26462;47.384;19.218;2023-02-28T08:08:49;3.10;73.90
40758;DHT22;26462;47.384;19.218;2023-02-28T08:11:17;3.20;73.90
40758;DHT22;26462;47.384;19.218;2023-02-28T08:13:45;3.30;73.30
40758;DHT22;26462;47.384;19.218;2023-02-28T08:16:15;3.30;73.60
40758;DHT22;26462;47.384;19.218;2023-02-28T08:18:44;3.40;73.70
40758;DHT22;26462;47.384;19.218;2023-02-28T08:21:11;3.40;73.90
40758;DHT22;26462;47.384;19.218;2023-02-28T08:23:39;3.40;75.10
40758;DHT22;26462;47.384;19.218;2023-02-28T08:26:06;3.50;74.90
40758;DHT22;26462;47.384;19.218;2023-02-28T08:28:33;3.50;74.20
40758;DHT22;26462;47.384;19.218;2023-02-28T08:31:01;3.50;74.40
40758;DHT22;26462;47.384;19.218;2023-02-28T08:33:37;3.60;74.60
40758;DHT22;26462;47.384;19.218;2023-02-28T08:36:06;3.50;74.10
40758;DHT22;26462;47.384;19.218;2023-02-28T08:38:35;3.60;73.30
40758;DHT22;26462;47.384;19.218;2023-02-28T08:41:07;3.70;74.10
40758;DHT22;26462;47.384;19.218;2023-02-28T08:43:48;3.90;73.40
40758;DHT22;26462;47.384;19.218;2023-02-28T08:46:17;4.00;74.00
40758;DHT22;26462;47.384;19.218;2023-02-28T08:48:45;4.00;74.40
40758;DHT22;26462;47.384;19.218;2023-02-28T08:51:15;3.90;74.10
40758;DHT22;26462;47.384;19.218;2023-02-28T08:53:45;4.00;74.10
40758;DHT22;26462;47.384;19.218;2023-02-28T08:56:15;3.90;74.90
40758;DHT22;26462;47.384;19.218;2023-02-28T08:58:45;4.10;75.40
40758;DHT22;26462;47.384;19.218;2023-02-28T09:03:42;4.10;75.40
40758;DHT22;26462;47.384;19.218;2023-02-28T09:06:13;4.10;74.30
40758;DHT22;26462;47.384;19.218;2023-02-28T09:08:43;4.10;74.70
40758;DHT22;26462;47.384;19.218;2023-02-28T09:11:10;4.30;74.50
40758;DHT22;26462;47.384;19.218;2023-02-28T09:13:38;4.30;75.30
40758;DHT22;26462;47.384;19.218;2023-02-28T09:16:07;4.40;74.80
40758;DHT22;26462;47.384;19.218;2023-02-28T09:18:36;4.40;74.50
40758;DHT22;26462;47.384;19.218;2023-02-28T09:21:05;4.50;75.30
40758;DHT22;26462;47.384;19.218;2023-02-28T09:23:33;4.40;74.80
40758;DHT22;26462;47.384;19.218;2023-02-28T09:26:01;4.60;75.50
40758;DHT22;26462;47.384;19.218;2023-02-28T09:28:28;4.70;76.20
40758;DHT22;26462;47.384;19.218;2023-02-28T09:30:56;4.70;75.40
40758;DHT22;26462;47.384;19.218;2023-02-28T09:33:26;4.70;76.40
40758;DHT22;26462;47.384;19.218;2023-02-28T09:35:59;4.80;76.60
40758;DHT22;26462;47.384;19.218;2023-02-28T09:38:28;4.90;76.10
40758;DHT22;26462;47.384;19.218;2023-02-28T09:40:58;4.90;75.10
40758;DHT22;26462;47.384;19.218;2023-02-28T09:43:30;4.90;75.30
40758;DHT22;26462;47.384;19.218;2023-02-28T09:46:28;5.00;75.30
40758;DHT22;26462;47.384;19.218;2023-02-28T09:48:58;5.10;75.50
40758;DHT22;26462;47.384;19.218;2023-02-28T09:54:24;5.20;75.30
40758;DHT22;26462;47.384;19.218;2023-02-28T10:05:18;5.60;74.70
40758;DHT22;26462;47.384;19.218;2023-02-28T10:13:00;5.70;74.10
40758;DHT22;26462;47.384;19.218;2023-02-28T10:15:31;5.60;74.30
40758;DHT22;26462;47.384;19.218;2023-02-28T10:18:05;5.80;74.10
40758;DHT22;26462;47.384;19.218;2023-02-28T10:20:38;6.10;74.70
40758;DHT22;26462;47.384;19.218;2023-02-28T10:23:25;6.30;73.40
40758;DHT22;26462;47.384;19.218;2023-02-28T10:28:52;6.10;73.60
40758;DHT22;26462;47.384;19.218;2023-02-28T10:31:20;5.90;73.20
40758;DHT22;26462;47.384;19.218;2023-02-28T10:33:48;6.00;75.50
40758;DHT22;26462;47.384;19.218;2023-02-28T10:36:28;5.80;72.90
40758;DHT22;26462;47.384;19.218;2023-02-28T10:45:36;5.80;74.80
40758;DHT22;26462;47.384;19.218;2023-02-28T10:57:18;5.80;74.60
40758;DHT22;26462;47.384;19.218;2023-02-28T11:02:59;5.90;75.60
40758;DHT22;26462;47.384;19.218;2023-02-28T11:05:32;5.80;74.80
40758;DHT22;26462;47.384;19.218;2023-02-28T11:08:05;5.90;76.50
40758;DHT22;26462;47.384;19.218;2023-02-28T11:10:34;5.90;76.00
40758;DHT22;26462;47.384;19.218;2023-02-28T11:13:02;5.90;76.00
40758;DHT22;26462;47.384;19.218;2023-02-28T11:15:32;5.90;75.80
40758;DHT22;26462;47.384;19.218;2023-02-28T11:18:18;5.90;75.60
40758;DHT22;26462;47.384;19.218;2023-02-28T11:20:53;5.80;75.70
40758;DHT22;26462;47.384;19.218;2023-02-28T11:23:30;5.80;75.40
40758;DHT22;26462;47.384;19.218;2023-02-28T11:26:05;5.80;75.30
40758;DHT22;26462;47.384;19.218;2023-02-28T11:28:40;5.40;75.10
40758;DHT22;26462;47.384;19.218;2023-02-28T11:36:26;6.40;74.80
40758;DHT22;26462;47.384;19.218;2023-02-28T11:39:15;6.70;74.70
40758;DHT22;26462;47.384;19.218;2023-02-28T11:51:51;6.80;72.20
40758;DHT22;26462;47.384;19.218;2023-02-28T11:55:05;6.90;72.70
40758;DHT22;26462;47.384;19.218;2023-02-28T12:42:17;7.40;71.00
40758;DHT22;26462;47.384;19.218;2023-02-28T12:45:08;7.30;71.40
40758;DHT22;26462;47.384;19.218;2023-02-28T12:47:40;7.30;71.90
40758;DHT22;26462;47.384;19.218;2023-02-28T13:09:02;6.90;71.70
40758;DHT22;26462;47.384;19.218;2023-02-28T13:18:32;6.90;73.00
40758;DHT22;26462;47.384;19.218;2023-02-28T13:21:07;6.80;72.90
40758;DHT22;26462;47.384;19.218;2023-02-28T13:29:45;6.70;73.50
40758;DHT22;26462;47.384;19.218;2023-02-28T13:35:44;6.80;73.90
40758;DHT22;26462;47.384;19.218;2023-02-28T13:38:32;6.80;73.60
40758;DHT22;26462;47.384;19.218;2023-02-28T13:50:35;6.80;75.10
40758;DHT22;26462;47.384;19.218;2023-02-28T13:56:34;6.70;73.70
40758;DHT22;26462;47.384;19.218;2023-02-28T15:02:24;6.10;76.80
40758;DHT22;26462;47.384;19.218;2023-02-28T15:08:15;5.90;76.20
40758;DHT22;26462;47.384;19.218;2023-02-28T15:10:44;5.90;76.70
40758;DHT22;26462;47.384;19.218;2023-02-28T15:13:14;5.90;77.20
40758;DHT22;26462;47.384;19.218;2023-02-28T15:21:07;5.80;77.10
40758;DHT22;26462;47.384;19.218;2023-02-28T15:23:37;5.80;77.40
40758;DHT22;26462;47.384;19.218;2023-02-28T15:26:07;5.80;77.60
40758;DHT22;26462;47.384;19.218;2023-02-28T15:28:34;5.80;77.90
40758;DHT22;26462;47.384;19.218;2023-02-28T15:31:20;5.80;78.40
40758;DHT22;26462;47.384;19.218;2023-02-28T15:33:53;5.70;78.80
40758;DHT22;26462;47.384;19.218;2023-02-28T15:36:26;5.70;78.60
40758;DHT22;26462;47.384;19.218;2023-02-28T15:38:55;5.70;78.60
40758;DHT22;26462;47.384;19.218;2023-02-28T15:41:38;5.70;78.90
40758;DHT22;26462;47.384;19.218;2023-02-28T15:47:12;5.60;79.40
40758;DHT22;26462;47.384;19.218;2023-02-28T15:52:21;5.60;79.90
40758;DHT22;26462;47.384;19.218;2023-02-28T15:54:49;5.60;80.20
40758;DHT22;26462;47.384;19.218;2023-02-28T15:57:21;5.60;80.40
40758;DHT22;26462;47.384;19.218;2023-02-28T15:59:55;5.60;80.40
40758;DHT22;26462;47.384;19.218;2023-02-28T16:02:33;5.50;80.70
40758;DHT22;26462;47.384;19.218;2023-02-28T16:10:54;5.40;81.30
40758;DHT22;26462;47.384;19.218;2023-02-28T16:13:21;5.40;81.70
40758;DHT22;26462;47.384;19.218;2023-02-28T21:49:32;4.50;91.10
40758;DHT22;26462;47.384;19.218;2023-02-28T21:52:00;4.40;91.00
40758;DHT22;26462;47.384;19.218;2023-02-28T21:54:27;4.40;91.00
40758;DHT22;26462;47.384;19.218;2023-02-28T21:56:54;4.50;91.00
40758;DHT22;26462;47.384;19.218;2023-02-28T21:59:22;4.50;91.00
40758;DHT22;26462;47.384;19.218;2023-02-28T22:01:49;4.40;91.00
40758;DHT22;26462;47.384;19.218;2023-02-28T22:04:17;4.40;91.10
40758;DHT22;26462;47.384;19.218;2023-02-28T22:06:52;4.50;91.20
40758;DHT22;26462;47.384;19.218;2023-02-28T22:09:20;4.50;91.30
40758;DHT22;26462;47.384;19.218;2023-02-28T22:11:48;4.40;91.20
40758;DHT22;26462;47.384;19.218;2023-02-28T22:14:16;4.50;91.00
40758;DHT22;26462;47.384;19.218;2023-02-28T22:16:44;4.40;91.00
40758;DHT22;26462;47.384;19.218;2023-02-28T22:19:19;4.50;91.40
40758;DHT22;26462;47.384;19.218;2023-02-28T22:21:47;4.40;91.40
40758;DHT22;26462;47.384;19.218;2023-02-28T22:24:14;4.40;91.00
40758;DHT22;26462;47.384;19.218;2023-02-28T22:26:43;4.40;91.00
40758;DHT22;26462;47.384;19.218;2023-02-28T22:29:10;4.40;91.10
40758;DHT22;26462;47.384;19.218;2023-02-28T22:31:38;4.40;91.40
40758;DHT22;26462;47.384;19.218;2023-02-28T22:34:07;4.50;91.10
40758;DHT22;26462;47.384;19.218;2023-02-28T22:36:35;4.50;91.40
40758;DHT22;26462;47.384;19.218;2023-02-28T22:39:03;4.40;91.50
40758;DHT22;26462;47.384;19.218;2023-02-28T22:41:31;4.40;91.40
40758;DHT22;26462;47.384;19.218;2023-02-28T22:44:00;4.40;91.40
40758;DHT22;26462;47.384;19.218;2023-02-28T22:46:29;4.40;91.60
40758;DHT22;26462;47.384;19.218;2023-02-28T22:48:59;4.40;91.80
40758;DHT22;26462;47.384;19.218;2023-02-28T22:51:27;4.40;92.20
40758;DHT22;26462;47.384;19.218;2023-02-28T22:53:56;4.40;92.50
40758;DHT22;26462;47.384;19.218;2023-02-28T22:56:26;4.40;92.60
40758;DHT22;26462;47.384;19.218;2023-02-28T22:58:56;4.40;92.20
40758;DHT22;26462;47.384;19.218;2023-02-28T23:01:25;4.40;92.00
40758;DHT22;26462;47.384;19.218;2023-02-28T23:03:54;4.40;91.90
40758;DHT22;26462;47.384;19.218;2023-02-28T23:06:22;4.40;91.80
40758;DHT22;26462;47.384;19.218;2023-02-28T23:08:51;4.40;91.80
40758;DHT22;26462;47.384;19.218;2023-02-28T23:11:28;4.30;91.70
40758;DHT22;26462;47.384;19.218;2023-02-28T23:13:57;4.30;91.70
40758;DHT22;26462;47.384;19.218;2023-02-28T23:16:28;4.30;91.90
40758;DHT22;26462;47.384;19.218;2023-02-28T23:18:58;4.30;91.90
40758;DHT22;26462;47.384;19.218;2023-02-28T23:21:26;4.30;91.90
40758;DHT22;26462;47.384;19.218;2023-02-28T23:23:53;4.30;92.10
40758;DHT22;26462;47.384;19.218;2023-02-28T23:26:21;3.20;91.70
40758;DHT22;26462;47.384;19.218;2023-02-28T23:28:49;4.30;92.00
40758;DHT22;26462;47.384;19.218;2023-02-28T23:31:16;4.30;92.20
40758;DHT22;26462;47.384;19.218;2023-02-28T23:33:43;4.30;92.10
40758;DHT22;26462;47.384;19.218;2023-02-28T23:36:13;4.30;92.00
40758;DHT22;26462;47.384;19.218;2023-02-28T23:38:44;4.30;91.90
40758;DHT22;26462;47.384;19.218;2023-02-28T23:41:12;4.30;92.00
40758;DHT22;26462;47.384;19.218;2023-02-28T23:43:40;4.30;92.20
40758;DHT22;26462;47.384;19.218;2023-02-28T23:46:08;4.30;92.00
40758;DHT22;26462;47.384;19.218;2023-02-28T23:48:36;4.30;92.10
40758;DHT22;26462;47.384;19.218;2023-02-28T23:51:15;4.30;92.10
40758;DHT22;26462;47.384;19.218;2023-02-28T23:53:45;4.30;92.10
40758;DHT22;26462;47.384;19.218;2023-02-28T23:56:16;4.30;92.10
40758;DHT22;26462;47.384;19.218;2023-02-28T23:58:44;4.30;92.30
